Time;durP1;ratioP1;P1;durP2;ratioP2;P2;SDS_P1;SDS_P2;PMS_P1;PMS_P2;Temp;Humidity;BMP_temperature;BMP_pressure;BME280_temperature;BME280_humidity;BME280_pressure;Samples;Min_cycle;Max_cycle;Signal;HPM_P1;HPM_P2
2023/04/11 00:02:01;;;;;;;4.95;1.70;;;;;;;8.90;100.00;100531.66;4908062;28;20051;-75
2023/04/11 00:04:29;;;;;;;2.25;1.60;;;;;;;8.77;100.00;100538.59;4949539;28;20034;-75
2023/04/11 00:06:56;;;;;;;4.30;1.30;;;;;;;8.70;100.00;100536.81;4948866;28;20473;-75
2023/04/11 00:09:23;;;;;;;2.08;1.27;;;;;;;8.65;100.00;100536.78;4962055;28;20035;-75
2023/04/11 00:11:51;;;;;;;1.88;0.90;;;;;;;8.57;100.00;100542.00;4963690;28;20127;-75
2023/04/11 00:14:18;;;;;;;4.22;1.30;;;;;;;8.38;100.00;100540.09;4949034;28;20047;-75
2023/04/11 00:16:48;;;;;;;4.07;1.40;;;;;;;8.26;100.00;100546.13;4944936;28;20039;-74
2023/04/11 00:19:16;;;;;;;4.57;1.60;;;;;;;8.18;100.00;100543.44;4949104;28;20075;-75
2023/04/11 00:21:44;;;;;;;1.77;1.15;;;;;;;8.12;100.00;100550.38;5006215;28;20488;-75
2023/04/11 00:24:11;;;;;;;2.70;1.00;;;;;;;8.07;100.00;100533.69;4985230;28;20054;-75
2023/04/11 00:26:38;;;;;;;3.78;1.38;;;;;;;8.03;100.00;100559.03;4992544;28;20049;-75
2023/04/11 00:29:06;;;;;;;4.13;1.25;;;;;;;7.99;100.00;100549.38;4997360;28;20061;-75
2023/04/11 00:31:33;;;;;;;9.20;2.00;;;;;;;7.95;100.00;100537.97;4934414;28;20050;-75
2023/04/11 00:34:00;;;;;;;3.58;1.67;;;;;;;7.90;100.00;100547.56;4911143;28;20054;-74
2023/04/11 00:36:30;;;;;;;4.60;1.67;;;;;;;7.85;100.00;100527.41;4986861;28;20077;-75
2023/04/11 00:39:00;;;;;;;5.38;2.15;;;;;;;7.83;100.00;100518.66;4991387;28;20444;-74
2023/04/11 00:41:27;;;;;;;4.60;1.77;;;;;;;7.80;100.00;100520.34;4989731;28;20065;-75
2023/04/11 00:43:54;;;;;;;5.18;1.60;;;;;;;7.77;100.00;100525.59;4977400;28;20054;-75
2023/04/11 00:46:23;;;;;;;9.50;2.05;;;;;;;7.73;100.00;100536.00;4990081;28;20086;-75
2023/04/11 00:48:51;;;;;;;5.78;1.63;;;;;;;7.71;100.00;100520.28;4931897;28;20488;-75
2023/04/11 00:51:19;;;;;;;4.70;1.67;;;;;;;7.72;100.00;100522.03;4989218;28;20053;-74
2023/04/11 00:53:47;;;;;;;5.78;1.85;;;;;;;7.74;100.00;100522.03;4990301;28;20057;-75
2023/04/11 00:56:14;;;;;;;7.32;2.10;;;;;;;7.75;100.00;100521.16;4968805;28;20061;-75
2023/04/11 00:58:43;;;;;;;4.07;1.77;;;;;;;7.72;100.00;100516.78;4985291;28;20413;-75
2023/04/11 01:01:10;;;;;;;7.53;1.80;;;;;;;7.70;100.00;100521.13;4983653;28;20416;-75
2023/04/11 01:03:38;;;;;;;9.25;1.92;;;;;;;7.67;100.00;100518.47;4981533;28;20042;-75
2023/04/11 01:06:10;;;;;;;7.63;2.40;;;;;;;7.64;100.00;100517.56;4939302;28;20041;-74
2023/04/11 01:08:39;;;;;;;3.60;1.90;;;;;;;7.56;100.00;100526.25;5000481;28;20306;-75
2023/04/11 01:11:09;;;;;;;6.90;2.23;;;;;;;7.50;100.00;100520.06;4988510;28;20195;-75
2023/04/11 01:13:40;;;;;;;7.47;2.13;;;;;;;7.42;100.00;100526.09;4990873;28;20100;-75
2023/04/11 01:16:08;;;;;;;9.43;1.95;;;;;;;7.37;100.00;100533.03;4986946;28;21332;-75
2023/04/11 01:18:36;;;;;;;4.70;1.77;;;;;;;7.34;100.00;100530.38;5006258;28;20057;-75
2023/04/11 01:21:04;;;;;;;9.73;1.98;;;;;;;7.32;100.00;100529.47;4916354;28;20064;-75
2023/04/11 01:23:33;;;;;;;5.65;1.90;;;;;;;7.28;100.00;100532.94;5006873;28;20052;-75
2023/04/11 01:26:00;;;;;;;6.00;1.92;;;;;;;7.23;100.00;100518.88;5003855;28;20053;-75
2023/04/11 01:28:27;;;;;;;7.45;2.22;;;;;;;7.17;100.00;100537.16;4979792;28;20054;-75
2023/04/11 01:30:56;;;;;;;8.43;2.40;;;;;;;7.12;100.00;100529.25;4959017;28;20066;-75
2023/04/11 01:33:24;;;;;;;16.77;2.88;;;;;;;7.06;100.00;100533.53;4952737;28;20049;-75
2023/04/11 01:35:51;;;;;;;17.13;2.50;;;;;;;7.01;100.00;100533.47;4965719;28;20054;-75
2023/04/11 01:38:20;;;;;;;10.20;2.78;;;;;;;6.95;100.00;100539.50;4979258;28;20053;-75
2023/04/11 01:40:47;;;;;;;13.65;2.92;;;;;;;6.92;100.00;100544.72;4985521;28;20374;-75
2023/04/11 01:43:15;;;;;;;14.00;2.60;;;;;;;6.89;100.00;100539.44;4983617;28;20405;-75
2023/04/11 01:45:42;;;;;;;12.80;3.38;;;;;;;6.87;100.00;100545.53;4987865;28;20724;-75
2023/04/11 01:48:10;;;;;;;12.27;2.60;;;;;;;6.86;100.00;100541.13;4966028;28;20050;-75
2023/04/11 01:50:37;;;;;;;12.25;2.88;;;;;;;6.85;100.00;100549.88;4972609;28;20050;-75
2023/04/11 01:53:05;;;;;;;15.25;2.88;;;;;;;6.84;100.00;100543.72;4934128;28;20049;-75
2023/04/11 01:55:32;;;;;;;12.68;3.00;;;;;;;6.84;100.00;100546.34;4989259;28;20054;-75
2023/04/11 01:57:59;;;;;;;16.23;2.97;;;;;;;6.86;100.00;100547.22;4984109;28;20065;-75
2023/04/11 02:00:27;;;;;;;8.90;3.13;;;;;;;6.85;100.00;100553.34;4998161;28;20496;-75
2023/04/11 02:02:54;;;;;;;13.68;3.45;;;;;;;6.86;100.00;100546.38;4978193;28;20054;-75
2023/04/11 02:05:22;;;;;;;11.73;2.92;;;;;;;6.88;100.00;100549.88;5003385;28;20061;-75
2023/04/11 02:07:49;;;;;;;15.45;3.00;;;;;;;6.89;100.00;100549.03;4934629;28;20050;-75
2023/04/11 02:10:17;;;;;;;15.23;2.75;;;;;;;6.91;100.00;100556.03;4971429;28;20054;-75
2023/04/11 02:12:45;;;;;;;14.40;3.25;;;;;;;6.94;100.00;100548.25;4988427;28;20041;-75
2023/04/11 02:15:12;;;;;;;10.90;2.60;;;;;;;6.97;100.00;100552.63;4985885;28;20500;-75
2023/04/11 02:17:44;;;;;;;12.00;2.47;;;;;;;6.97;100.00;100561.34;5006153;28;20514;-75
2023/04/11 02:20:13;;;;;;;12.48;2.47;;;;;;;6.96;100.00;100549.13;4970392;28;20065;-75
2023/04/11 02:22:40;;;;;;;7.05;2.05;;;;;;;6.96;100.00;100556.13;4957632;28;20047;-75
2023/04/11 02:25:08;;;;;;;12.27;2.50;;;;;;;6.95;100.00;100562.22;4926993;28;20051;-75
2023/04/11 02:27:35;;;;;;;9.60;2.22;;;;;;;6.95;100.00;100549.13;5000623;28;20094;-75
2023/04/11 02:30:06;;;;;;;16.63;3.10;;;;;;;6.93;100.00;100549.09;5000025;28;20508;-74
2023/04/11 02:32:34;;;;;;;14.68;2.08;;;;;;;6.92;100.00;100549.97;4985262;28;20047;-74
2023/04/11 02:35:03;;;;;;;12.25;2.55;;;;;;;6.93;100.00;100549.09;4956266;28;20077;-74
2023/04/11 02:37:31;;;;;;;6.32;1.73;;;;;;;6.90;100.00;100538.59;4974647;28;20532;-76
2023/04/11 02:39:58;;;;;;;12.45;2.38;;;;;;;6.90;100.00;100546.44;4936324;28;20065;-74
2023/04/11 02:42:25;;;;;;;9.00;1.63;;;;;;;6.90;100.00;100553.41;4994617;28;20054;-76
2023/04/11 02:44:54;;;;;;;4.45;1.40;;;;;;;6.87;100.00;100545.53;5000275;28;20058;-76
2023/04/11 02:47:26;;;;;;;5.68;1.40;;;;;;;6.87;100.00;100545.53;4977840;28;20054;-76
2023/04/11 02:49:57;;;;;;;5.70;1.98;;;;;;;6.85;100.00;100552.47;4973775;28;20062;-74
2023/04/11 02:52:32;;;;;;;8.35;1.75;;;;;;;6.86;100.00;100546.38;4957672;28;20054;-75
2023/04/11 02:54:59;;;;;;;3.13;1.38;;;;;;;6.87;100.00;100550.75;4937737;28;20081;-74
2023/04/11 02:57:27;;;;;;;4.18;1.42;;;;;;;6.87;100.00;100556.00;4952988;28;20065;-74
2023/04/11 02:59:55;;;;;;;2.30;1.20;;;;;;;6.87;100.00;100549.00;4999755;28;20067;-74
2023/04/11 03:02:30;;;;;;;5.13;1.50;;;;;;;6.87;100.00;100548.13;4970458;28;20046;-74
2023/04/11 03:05:03;;;;;;;4.35;1.50;;;;;;;6.86;100.00;100544.63;4983064;28;20413;-74
2023/04/11 03:07:39;;;;;;;4.05;1.48;;;;;;;6.85;100.00;100550.72;4973967;28;20058;-74
2023/04/11 03:10:09;;;;;;;4.22;1.60;;;;;;;6.87;100.00;100554.25;4926698;28;20665;-73
2023/04/11 03:12:37;;;;;;;3.30;1.77;;;;;;;6.85;100.00;100550.72;4985047;28;20417;-76
2023/04/11 03:15:06;;;;;;;3.55;1.77;;;;;;;6.84;100.00;100554.19;4997854;28;20651;-74
2023/04/11 03:17:33;;;;;;;8.93;2.00;;;;;;;6.84;100.00;100551.56;4986073;28;20053;-76
2023/04/11 03:20:05;;;;;;;4.70;1.55;;;;;;;6.84;100.00;100559.44;4998059;28;20501;-76
2023/04/11 03:22:33;;;;;;;4.53;1.45;;;;;;;6.84;100.00;100556.81;4977679;28;20046;-76
2023/04/11 03:25:01;;;;;;;5.53;1.60;;;;;;;6.83;100.00;100555.06;4919754;28;20055;-74
2023/04/11 03:27:29;;;;;;;4.53;1.35;;;;;;;6.83;100.00;100555.06;4977781;28;20503;-75
2023/04/11 03:29:59;;;;;;;;;;;;;;;6.83;100.00;100545.47;4967180;28;20057;-74
2023/04/11 03:32:38;;;;;;;4.05;1.45;;;;;;;6.85;100.00;100552.47;4970841;28;19926;-74
2023/04/11 03:35:05;;;;;;;4.60;1.63;;;;;;;6.86;100.00;100555.09;4980469;28;20050;-74
2023/04/11 03:37:33;;;;;;;2.95;1.40;;;;;;;6.85;100.00;100561.22;4972979;28;20049;-76
2023/04/11 03:40:01;;;;;;;4.05;1.98;;;;;;;6.87;100.00;100558.63;4970649;28;20397;-76
2023/04/11 03:42:28;;;;;;;10.63;2.25;;;;;;;6.85;100.00;100552.47;4938538;28;20062;-75
2023/04/11 03:44:59;;;;;;;5.95;2.00;;;;;;;6.85;100.00;100558.59;4981801;28;20055;-74
2023/04/11 03:47:26;;;;;;;4.35;1.95;;;;;;;6.83;100.00;100553.31;4976016;28;20061;-75
2023/04/11 03:49:54;;;;;;;5.43;2.28;;;;;;;6.85;100.00;100566.44;4982831;28;20405;-74
2023/04/11 03:52:21;;;;;;;12.27;2.38;;;;;;;6.83;100.00;100553.31;4967366;28;20543;-74
2023/04/11 03:54:50;;;;;;;7.43;2.88;;;;;;;6.82;100.00;100559.44;4959132;28;20070;-74
2023/04/11 03:57:18;;;;;;;8.55;2.03;;;;;;;6.83;100.00;100578.66;4936851;28;20069;-74
2023/04/11 03:59:46;;;;;;;10.80;2.45;;;;;;;6.83;100.00;100561.19;5001188;28;20069;-74
2023/04/11 04:02:14;;;;;;;8.00;2.67;;;;;;;6.82;100.00;100561.16;4947232;28;20098;-74
2023/04/11 04:04:54;;;;;;;7.15;2.10;;;;;;;6.83;100.00;100573.41;4982681;28;20065;-74
2023/04/11 04:07:27;;;;;;;10.70;2.38;;;;;;;6.83;100.00;100578.66;4954602;28;23793;-74
2023/04/11 04:10:03;;;;;;;7.55;2.13;;;;;;;6.83;100.00;100574.28;4966935;28;20413;-74
2023/04/11 04:12:31;;;;;;;6.93;2.17;;;;;;;6.85;100.00;100574.31;4953109;28;20043;-74
2023/04/11 04:15:14;;;;;;;5.65;2.30;;;;;;;6.87;100.00;100577.81;4991841;28;20091;-74
2023/04/11 04:17:45;;;;;;;6.10;2.55;;;;;;;6.87;100.00;100575.19;4971329;28;20054;-74
2023/04/11 04:20:18;;;;;;;8.65;2.72;;;;;;;6.87;100.00;100582.19;4997577;28;20588;-74
2023/04/11 04:22:52;;;;;;;7.82;2.45;;;;;;;6.87;100.00;100575.19;4991389;28;20050;-74
2023/04/11 04:25:26;;;;;;;15.77;2.53;;;;;;;6.85;100.00;100576.06;4958181;28;20054;-76
2023/04/11 04:27:56;;;;;;;6.45;2.30;;;;;;;6.82;100.00;100574.25;4977187;28;20050;-76
2023/04/11 04:30:27;;;;;;;13.82;3.30;;;;;;;6.84;100.00;100575.16;4978221;28;20513;-76
2023/04/11 04:33:03;;;;;;;9.82;2.88;;;;;;;6.82;100.00;100569.00;4975982;28;20138;-76
2023/04/11 04:35:32;;;;;;;10.88;2.80;;;;;;;6.81;100.00;100576.00;5001529;28;20058;-76
2023/04/11 04:38:05;;;;;;;5.82;2.72;;;;;;;6.82;100.00;100583.00;4962049;28;20073;-76
2023/04/11 04:40:44;;;;;;;14.18;3.45;;;;;;;6.82;100.00;100582.09;4983800;28;20050;-75
2023/04/11 04:43:17;;;;;;;11.13;3.20;;;;;;;6.82;100.00;100582.09;4970202;28;20118;-76
2023/04/11 04:45:50;;;;;;;8.13;2.85;;;;;;;6.81;100.00;100585.59;4942376;28;20062;-76
2023/04/11 04:48:24;;;;;;;11.50;3.80;;;;;;;6.82;100.00;100585.63;4969471;28;20497;-77
2023/04/11 04:50:52;;;;;;;12.93;3.15;;;;;;;6.81;100.00;100585.59;4983579;28;20064;-74
2023/04/11 04:53:20;;;;;;;11.43;3.83;;;;;;;6.79;100.00;100590.81;4975496;28;20054;-75
2023/04/11 04:55:55;;;;;;;10.50;3.65;;;;;;;6.79;100.00;100593.44;4988857;28;20058;-75
2023/04/11 04:58:24;;;;;;;6.70;3.08;;;;;;;6.80;100.00;100589.06;4955347;28;20048;-76
2023/04/11 05:00:54;;;;;;;13.43;3.20;;;;;;;6.82;100.00;100587.34;4954571;28;20050;-75
2023/04/11 05:03:26;;;;;;;7.07;2.88;;;;;;;6.85;100.00;100599.63;4964246;28;20042;-75
2023/04/11 05:05:55;;;;;;;9.65;3.17;;;;;;;6.86;100.00;100594.38;4962152;28;20429;-75
2023/04/11 05:08:23;;;;;;;13.15;3.45;;;;;;;6.87;100.00;100590.03;4993220;28;20055;-75
2023/04/11 05:10:54;;;;;;;10.20;3.15;;;;;;;6.88;100.00;100597.94;4957395;28;20050;-75
2023/04/11 05:13:21;;;;;;;16.73;3.40;;;;;;;6.89;100.00;100601.44;4969725;28;20065;-75
2023/04/11 05:15:49;;;;;;;12.27;3.78;;;;;;;6.89;100.00;100599.69;4941734;28;20065;-75
2023/04/11 05:18:17;;;;;;;10.48;2.90;;;;;;;6.91;100.00;100599.69;4981067;28;20047;-75
2023/04/11 05:20:45;;;;;;;8.77;2.83;;;;;;;6.90;100.00;100606.69;4953408;28;20397;-75
2023/04/11 05:23:18;;;;;;;14.10;4.10;;;;;;;6.90;100.00;100596.22;4939411;28;20047;-75
2023/04/11 05:25:47;;;;;;;12.63;3.50;;;;;;;6.91;100.00;100608.44;4958619;28;20058;-75
2023/04/11 05:28:15;;;;;;;8.57;3.10;;;;;;;6.91;100.00;100612.81;4968235;28;20053;-75
2023/04/11 05:30:43;;;;;;;9.48;2.72;;;;;;;6.92;100.00;100615.44;4984700;28;20058;-75
2023/04/11 05:33:13;;;;;;;10.82;3.08;;;;;;;6.93;100.00;100611.97;4943308;28;20501;-75
2023/04/11 05:35:43;;;;;;;10.00;3.53;;;;;;;6.96;100.00;100616.38;4973131;28;20054;-75
2023/04/11 05:38:10;;;;;;;12.20;3.25;;;;;;;6.96;100.00;100622.50;4995453;28;20050;-75
2023/04/11 05:40:39;;;;;;;8.60;2.60;;;;;;;6.97;100.00;100621.59;4948346;28;20054;-75
2023/04/11 05:43:07;;;;;;;7.47;2.25;;;;;;;6.97;100.00;100619.00;4974110;28;20398;-75
2023/04/11 05:45:34;;;;;;;6.07;2.30;;;;;;;6.94;100.00;100631.19;4970647;28;20061;-76
2023/04/11 05:48:06;;;;;;;5.10;1.98;;;;;;;6.89;100.00;100636.34;4949292;28;20062;-76
2023/04/11 05:50:34;;;;;;;3.97;1.67;;;;;;;6.84;100.00;100643.25;4983634;28;20050;-76
2023/04/11 05:53:02;;;;;;;6.65;1.65;;;;;;;6.80;100.00;100646.69;4971163;28;20515;-75
2023/04/11 05:55:29;;;;;;;2.80;1.55;;;;;;;6.74;100.00;100660.56;4953529;28;20405;-74
2023/04/11 05:57:56;;;;;;;4.50;1.25;;;;;;;6.72;100.00;100658.78;4982389;28;20050;-74
2023/04/11 06:00:25;;;;;;;5.20;1.67;;;;;;;6.70;100.00;100664.00;4977132;28;20057;-75
2023/04/11 06:02:53;;;;;;;3.67;1.67;;;;;;;6.67;100.00;100668.31;4929902;28;20043;-75
2023/04/11 06:05:21;;;;;;;3.13;1.60;;;;;;;6.66;100.00;100679.66;4978418;28;20117;-75
2023/04/11 06:07:48;;;;;;;2.40;1.70;;;;;;;6.63;100.00;100676.13;4987903;28;20042;-74
2023/04/11 06:10:16;;;;;;;4.40;2.28;;;;;;;6.59;100.00;100673.41;4956215;28;20046;-74
2023/04/11 06:12:43;;;;;;;7.90;2.30;;;;;;;6.56;100.00;100666.41;4933953;28;20065;-75
2023/04/11 06:15:12;;;;;;;3.67;2.13;;;;;;;6.58;100.00;100674.28;4970405;28;20515;-76
2023/04/11 06:17:39;;;;;;;6.72;2.38;;;;;;;6.57;100.00;100709.16;4935584;28;26939;-75
2023/04/11 06:20:09;;;;;;;2.90;1.88;;;;;;;6.53;100.00;100710.84;4961189;28;20066;-76
2023/04/11 06:22:36;;;;;;;4.85;1.77;;;;;;;6.38;100.00;100706.22;4937103;28;20051;-76
2023/04/11 06:25:04;;;;;;;2.42;1.60;;;;;;;6.28;100.00;100696.44;4948657;29;20054;-76
2023/04/11 06:27:31;;;;;;;3.13;1.23;;;;;;;6.16;100.00;100688.34;4964898;28;20047;-74
2023/04/11 06:29:59;;;;;;;4.72;1.52;;;;;;;6.11;100.00;100690.91;4935287;28;20062;-75
2023/04/11 06:32:26;;;;;;;1.67;1.30;;;;;;;6.10;100.00;100693.47;4921481;28;20054;-74
2023/04/11 06:34:54;;;;;;;3.50;1.58;;;;;;;6.06;100.00;100705.63;4972814;28;20054;-75
2023/04/11 06:37:22;;;;;;;7.03;1.52;;;;;;;6.06;100.00;100697.78;4957921;28;20062;-74
2023/04/11 06:39:49;;;;;;;5.68;1.58;;;;;;;6.03;100.00;100711.69;4975114;28;20054;-74
2023/04/11 06:42:17;;;;;;;3.30;1.30;;;;;;;6.03;100.00;100716.00;4982164;28;20066;-77
2023/04/11 06:44:45;;;;;;;1.75;1.23;;;;;;;6.04;100.00;100707.31;4959751;28;20047;-78
2023/04/11 06:47:12;;;;;;;3.35;1.40;;;;;;;6.07;100.00;100712.63;4957711;28;20054;-80
2023/04/11 06:49:40;;;;;;;3.60;1.60;;;;;;;6.09;100.00;100724.00;4933262;28;20059;-77
2023/04/11 06:52:07;;;;;;;6.60;1.52;;;;;;;6.12;100.00;100721.41;4971456;28;20050;-79
2023/04/11 06:54:35;;;;;;;3.60;1.27;;;;;;;6.13;100.00;100725.81;4944712;28;20073;-78
2023/04/11 06:57:02;;;;;;;6.72;2.08;;;;;;;6.14;100.00;100730.19;4941049;28;20062;-78
2023/04/11 06:59:29;;;;;;;4.78;1.50;;;;;;;6.16;100.00;100732.84;4956796;28;20051;-78
2023/04/11 07:01:58;;;;;;;8.88;1.65;;;;;;;6.19;100.00;100739.00;4979349;28;20050;-78
2023/04/11 07:04:25;;;;;;;5.07;1.55;;;;;;;6.20;100.00;100740.78;4933227;28;20051;-78
2023/04/11 07:06:53;;;;;;;7.35;1.80;;;;;;;6.22;100.00;100741.69;4951786;28;20059;-78
2023/04/11 07:09:20;;;;;;;7.75;1.50;;;;;;;6.18;100.00;100755.59;4953830;28;20043;-78
2023/04/11 07:11:48;;;;;;;8.68;1.73;;;;;;;6.21;100.00;100752.13;4984961;28;20071;-77
2023/04/11 07:14:15;;;;;;;3.83;1.33;;;;;;;6.28;100.00;100755.75;4947270;28;20038;-77
2023/04/11 07:16:43;;;;;;;7.13;1.60;;;;;;;6.29;100.00;100754.91;4954054;28;20069;-78
2023/04/11 07:19:10;;;;;;;9.20;1.50;;;;;;;6.32;100.00;100754.97;4953466;28;20043;-78
2023/04/11 07:21:37;;;;;;;10.90;2.10;;;;;;;6.37;100.00;100776.84;4962579;28;20041;-77
2023/04/11 07:24:05;;;;;;;4.00;1.55;;;;;;;6.44;100.00;100763.03;4973000;28;20053;-77
2023/04/11 07:26:34;;;;;;;3.63;1.30;;;;;;;6.52;100.00;100778.88;4988697;28;20046;-78
2023/04/11 07:29:02;;;;;;;6.20;1.77;;;;;;;6.54;100.00;100778.06;4989984;28;20057;-78
2023/04/11 07:31:29;;;;;;;5.45;1.60;;;;;;;6.57;100.00;100775.50;4985132;28;20065;-78
2023/04/11 07:33:57;;;;;;;7.10;1.50;;;;;;;6.62;100.00;100784.31;4988504;28;20057;-79
2023/04/11 07:36:25;;;;;;;9.70;1.80;;;;;;;6.67;100.00;100780.91;4951292;28;20046;-77
2023/04/11 07:38:52;;;;;;;6.82;1.67;;;;;;;6.68;100.00;100791.41;4987667;28;20054;-78
2023/04/11 07:41:20;;;;;;;9.02;2.72;;;;;;;6.73;100.00;100789.75;4980643;28;20062;-78
2023/04/11 07:43:47;;;;;;;4.78;1.63;;;;;;;6.80;100.00;100786.38;4989191;28;20057;-78
2023/04/11 07:46:15;;;;;;;9.57;1.80;;;;;;;6.89;100.00;100790.03;4985251;28;20077;-77
2023/04/11 07:48:42;;;;;;;7.38;2.15;;;;;;;6.95;100.00;100795.38;4998825;28;20826;-77
2023/04/11 07:51:10;;;;;;;11.07;2.40;;;;;;;7.02;100.00;100794.63;4941124;28;20052;-78
2023/04/11 07:53:37;;;;;;;13.20;2.50;;;;;;;7.09;100.00;100792.97;4982389;28;20049;-78
2023/04/11 07:56:05;;;;;;;11.05;2.60;;;;;;;7.18;100.00;100791.41;4996341;28;20042;-78
2023/04/11 07:58:32;;;;;;;24.75;3.28;;;;;;;7.22;100.00;100800.16;4980117;28;20057;-77
2023/04/11 08:01:01;;;;;;;23.35;4.15;;;;;;;7.33;100.00;100802.97;4992896;28;20054;-78
2023/04/11 08:03:28;;;;;;;11.43;2.67;;;;;;;7.42;100.00;100801.38;5001854;28;20060;-78
2023/04/11 08:05:56;;;;;;;12.00;3.30;;;;;;;7.55;100.00;100804.19;4980845;28;20051;-78
2023/04/11 08:08:24;;;;;;;12.68;2.92;;;;;;;7.70;100.00;100808.78;4946887;28;20054;-78
2023/04/11 08:10:52;;;;;;;12.60;3.05;;;;;;;7.96;100.00;100814.38;4981016;28;24262;-78
2023/04/11 08:13:19;;;;;;;9.73;2.35;;;;;;;8.20;100.00;100819.94;4972019;28;20058;-77
2023/04/11 08:15:46;;;;;;;12.05;2.55;;;;;;;8.41;100.00;100818.41;4994071;28;20698;-78
2023/04/11 08:18:15;;;;;;;11.55;2.90;;;;;;;8.61;100.00;100820.44;4982368;28;20046;-78
2023/04/11 08:20:42;;;;;;;10.07;2.47;;;;;;;8.81;100.00;100832.03;4981970;28;20635;-78
2023/04/11 08:23:10;;;;;;;12.65;2.90;;;;;;;8.94;100.00;100830.41;4944935;28;20053;-79
2023/04/11 08:25:37;;;;;;;11.52;2.75;;;;;;;9.02;100.00;100826.13;4959312;28;20034;-79
2023/04/11 08:28:05;;;;;;;11.60;2.92;;;;;;;9.12;100.00;100829.69;4960547;28;20050;-78
2023/04/11 08:30:32;;;;;;;8.07;2.30;;;;;;;9.06;100.00;100842.78;4956781;28;20065;-78
2023/04/11 08:33:00;;;;;;;13.85;2.95;;;;;;;8.93;100.00;100837.41;4980783;28;20050;-78
2023/04/11 08:35:43;;;;;;;10.18;3.17;;;;;;;8.82;100.00;100844.31;4986430;28;20045;-79
2023/04/11 08:41:03;;;;;;;13.23;3.00;;;;;;;8.71;100.00;100856.44;4991495;28;20030;-77
2023/04/11 08:43:35;;;;;;;9.05;2.58;;;;;;;8.69;100.00;100852.91;4972141;28;20060;-77
2023/04/11 08:46:08;;;;;;;5.82;1.95;;;;;;;8.59;100.00;100857.19;4986695;28;20065;-77
2023/04/11 08:48:37;;;;;;;5.55;1.75;;;;;;;8.50;100.00;100871.09;4975217;28;20061;-77
2023/04/11 08:51:04;;;;;;;4.68;1.65;;;;;;;8.38;100.00;100863.03;4986180;28;20054;-77
2023/04/11 08:53:35;;;;;;;3.42;1.10;;;;;;;8.28;100.00;100871.66;4961288;28;20065;-77
2023/04/11 08:56:02;;;;;;;6.13;1.80;;;;;;;8.41;100.00;100886.69;4965186;28;20050;-77
2023/04/11 08:58:31;;;;;;;4.35;1.65;;;;;;;8.33;100.00;100876.09;4977961;28;20046;-77
2023/04/11 09:01:24;;;;;;;3.35;1.30;;;;;;;8.07;100.00;100881.03;5005821;28;20065;-78
2023/04/11 09:03:52;;;;;;;4.28;1.20;;;;;;;7.98;100.00;100883.53;4985797;28;20061;-77
2023/04/11 09:06:31;;;;;;;5.35;1.88;;;;;;;8.13;100.00;100874.97;4980553;28;20046;-80
2023/04/11 09:08:59;;;;;;;8.32;2.75;;;;;;;8.26;100.00;100876.00;4981255;28;20072;-79
2023/04/11 09:11:27;;;;;;;9.65;1.90;;;;;;;8.30;100.00;100883.06;4949251;28;20048;-78
2023/04/11 09:14:09;;;;;;;7.13;1.77;;;;;;;8.35;100.00;100886.63;4977655;28;20057;-79
2023/04/11 09:16:36;;;;;;;9.70;2.40;;;;;;;8.36;100.00;100884.03;4993144;28;20038;-78
2023/04/11 09:19:22;;;;;;;8.13;2.10;;;;;;;8.38;100.00;100918.19;4989538;28;20401;-78
2023/04/11 09:21:50;;;;;;;3.97;1.50;;;;;;;8.15;100.00;100916.13;4982495;28;20065;-78
2023/04/11 09:24:17;;;;;;;6.38;1.30;;;;;;;7.75;100.00;100905.03;4974870;28;20053;-78
2023/04/11 09:26:44;;;;;;;4.38;1.23;;;;;;;7.54;100.00;100900.34;4964840;28;20512;-78
2023/04/11 09:29:34;;;;;;;3.78;1.48;;;;;;;7.53;100.00;100892.44;5009825;28;20427;-78
2023/04/11 09:32:02;;;;;;;5.15;1.38;;;;;;;7.51;100.00;100895.03;5008995;28;20038;-78
2023/04/11 09:34:30;;;;;;;5.95;1.80;;;;;;;7.64;100.00;100893.50;4950836;28;20061;-78
2023/04/11 09:36:58;;;;;;;10.40;2.60;;;;;;;7.87;100.00;100901.72;4989049;28;20054;-78
2023/04/11 09:39:28;;;;;;;7.85;2.33;;;;;;;8.02;100.00;100919.44;4971658;28;20057;-77
2023/04/11 09:41:56;;;;;;;12.85;2.53;;;;;;;8.03;100.00;100915.06;4942847;28;20054;-78
2023/04/11 09:44:37;;;;;;;9.90;2.58;;;;;;;8.03;100.00;100908.06;4998233;28;20046;-78
2023/04/11 09:47:04;;;;;;;3.80;1.48;;;;;;;7.98;100.00;100918.50;4973456;28;20053;-78
2023/04/11 09:49:33;;;;;;;7.47;2.05;;;;;;;7.92;100.00;100910.56;4987652;28;20062;-78
2023/04/11 09:52:01;;;;;;;9.07;2.25;;;;;;;7.89;100.00;100914.88;4994396;28;20090;-78
2023/04/11 09:54:30;;;;;;;5.90;1.95;;;;;;;7.91;100.00;100913.16;4992049;28;20065;-77
2023/04/11 09:56:58;;;;;;;8.10;1.95;;;;;;;7.88;100.00;100919.25;4933097;28;20038;-78
2023/04/11 09:59:26;;;;;;;11.27;2.83;;;;;;;7.87;100.00;100930.56;4997329;28;20434;-78
2023/04/11 10:01:55;;;;;;;7.57;2.17;;;;;;;7.85;100.00;100947.16;4976562;28;20050;-78
2023/04/11 10:04:23;;;;;;;4.68;1.48;;;;;;;7.66;100.00;100931.13;4983409;28;20053;-78
2023/04/11 10:06:53;;;;;;;4.15;1.52;;;;;;;7.57;100.00;100941.47;4994747;28;20046;-77
2023/04/11 10:09:22;;;;;;;8.48;2.20;;;;;;;7.49;100.00;100935.22;5004573;28;20527;-77
2023/04/11 10:11:49;;;;;;;11.35;2.88;;;;;;;7.53;100.00;100937.91;4972283;28;20050;-78
2023/04/11 10:14:35;;;;;;;13.57;3.35;;;;;;;7.59;100.00;100938.00;4942623;28;20058;-78
2023/04/11 10:17:11;;;;;;;7.53;2.45;;;;;;;7.83;100.00;100943.63;4968920;28;20130;-78
2023/04/11 10:19:39;;;;;;;10.25;2.22;;;;;;;8.16;100.00;100924.88;5003511;28;20056;-78
2023/04/11 10:22:06;;;;;;;11.68;2.10;;;;;;;8.53;100.00;100918.41;4980756;28;20045;-78
2023/04/11 10:24:34;;;;;;;8.82;2.55;;;;;;;8.73;100.00;100917.75;4974782;28;20042;-77
2023/04/11 10:27:03;;;;;;;5.53;1.70;;;;;;;8.94;100.00;100923.28;4978686;28;20050;-77
2023/04/11 10:29:35;;;;;;;5.13;1.90;;;;;;;9.11;100.00;100923.47;4943564;28;20058;-76
2023/04/11 10:32:14;;;;;;;7.10;1.65;;;;;;;9.05;100.00;100940.91;4995976;28;20041;-78
2023/04/11 10:34:54;;;;;;;2.75;1.23;;;;;;;8.85;100.00;100945.97;4989461;28;20041;-78
2023/04/11 10:37:32;;;;;;;3.57;1.53;;;;;;;8.61;100.00;100946.53;4981316;28;20034;-77
2023/04/11 10:40:10;;;;;;;5.43;1.67;;;;;;;8.50;100.00;100955.13;4988368;28;20058;-78
2023/04/11 10:42:42;;;;;;;4.80;1.27;;;;;;;8.40;100.00;100967.22;4973368;28;20536;-77
2023/04/11 10:45:25;;;;;;;7.68;1.80;;;;;;;8.35;100.00;100966.28;4923983;28;20069;-77
2023/04/11 10:48:06;;;;;;;4.75;1.40;;;;;;;8.34;100.00;100972.41;4959776;28;20060;-78
2023/04/11 10:50:39;;;;;;;11.93;1.88;;;;;;;8.49;100.00;100963.03;4983215;28;20054;-77
2023/04/11 10:53:09;;;;;;;8.05;1.88;;;;;;;8.83;100.00;100955.53;4980154;28;20056;-78
2023/04/11 10:55:49;;;;;;;7.38;1.80;;;;;;;9.27;100.00;100961.31;4968654;28;20049;-78
2023/04/11 10:58:18;;;;;;;9.00;2.50;;;;;;;9.42;100.00;100972.88;4981872;28;20052;-77
2023/04/11 11:00:46;;;;;;;9.65;2.75;;;;;;;9.43;100.00;100971.97;4977584;28;20041;-78
2023/04/11 11:03:15;;;;;;;4.10;1.45;;;;;;;9.49;100.00;100969.41;4978527;28;20054;-78
2023/04/11 11:05:44;;;;;;;8.18;1.63;;;;;;;9.59;100.00;100981.78;4974116;28;20049;-79
2023/04/11 11:08:11;;;;;;;7.50;1.55;;;;;;;9.79;100.00;100962.66;4961666;28;20066;-79
2023/04/11 11:10:45;;;;;;;8.45;2.17;;;;;;;9.84;100.00;100980.25;4976977;28;20073;-79
2023/04/11 11:13:15;;;;;;;10.60;2.15;;;;;;;9.85;100.00;100984.66;4979983;28;20057;-78
2023/04/11 11:15:47;;;;;;;10.27;2.08;;;;;;;9.92;100.00;100981.22;4936375;28;20054;-78
2023/04/11 11:18:16;;;;;;;11.40;2.95;;;;;;;9.89;100.00;100986.44;4972587;28;20038;-79
2023/04/11 11:20:45;;;;;;;6.55;2.50;;;;;;;9.69;100.00;100994.16;4995506;28;20050;-78
2023/04/11 11:23:12;;;;;;;5.50;2.13;;;;;;;9.76;100.00;101019.66;4967902;28;20057;-79
2023/04/11 11:25:51;;;;;;;6.57;1.60;;;;;;;9.81;100.00;100997.75;4972508;28;20041;-79
2023/04/11 11:28:19;;;;;;;7.22;2.03;;;;;;;9.69;100.00;101007.31;4953627;28;20437;-78
2023/04/11 11:30:55;;;;;;;3.67;1.30;;;;;;;9.66;100.00;101016.91;4938597;28;20042;-77
2023/04/11 11:33:25;;;;;;;6.43;1.65;;;;;;;9.39;100.00;101030.69;4986411;28;20060;-78
2023/04/11 11:36:03;;;;;;;9.60;2.13;;;;;;;9.01;100.00;101052.16;4988989;28;20046;-77
2023/04/11 11:38:30;;;;;;;6.00;1.38;;;;;;;8.49;100.00;101058.44;4984866;28;20416;-78